Time;durP1;ratioP1;P1;durP2;ratioP2;P2;SDS_P1;SDS_P2;PMS_P1;PMS_P2;Temp;Humidity;BMP_temperature;BMP_pressure;BME280_temperature;BME280_humidity;BME280_pressure;Samples;Min_cycle;Max_cycle;Signal;HPM_P1;HPM_P2
2022/05/18 00:01:16;;;;;;;3.70;2.00;;;;;;;13.06;100.00;100584.31;7395368;19;20389;-51
2022/05/18 00:03:48;;;;;;;7.53;1.70;;;;;;;13.01;100.00;100610.88;7387381;19;20411;-52
2022/05/18 00:06:17;;;;;;;17.13;1.83;;;;;;;13.01;100.00;100622.13;7396795;19;20423;-57
2022/05/18 00:08:47;;;;;;;3.50;1.60;;;;;;;12.96;100.00;100632.38;7387388;19;20428;-53
2022/05/18 00:11:21;;;;;;;7.53;1.90;;;;;;;12.88;100.00;100651.09;7393871;19;20385;-54
2022/05/18 00:13:52;;;;;;;5.10;2.00;;;;;;;12.80;100.00;100664.69;7387313;19;20416;-57
2022/05/18 00:16:23;;;;;;;4.47;1.30;;;;;;;12.74;100.00;100669.66;7392178;19;20423;-53
2022/05/18 00:18:53;;;;;;;3.80;1.50;;;;;;;12.69;100.00;100676.41;7387661;19;20411;-57
2022/05/18 00:21:22;;;;;;;8.33;1.37;;;;;;;12.67;100.00;100688.44;7393688;19;20381;-57
2022/05/18 00:23:52;;;;;;;4.27;1.60;;;;;;;12.63;100.00;100683.97;7385708;19;20411;-55
2022/05/18 00:26:24;;;;;;;10.90;1.97;;;;;;;12.55;100.00;100679.44;7401376;19;20425;-58
2022/05/18 00:28:54;;;;;;;8.93;1.77;;;;;;;12.50;100.00;100686.16;7394401;19;20419;-55
2022/05/18 00:31:23;;;;;;;10.23;1.90;;;;;;;12.48;100.00;100697.28;7401017;19;20392;-55
2022/05/18 00:33:53;;;;;;;3.67;1.53;;;;;;;12.49;100.00;100705.13;7393704;19;20412;-57
2022/05/18 00:36:22;;;;;;;3.20;1.40;;;;;;;12.46;100.00;100705.00;7398593;19;20423;-58
2022/05/18 00:38:52;;;;;;;3.03;1.50;;;;;;;12.37;100.00;100715.91;7393540;19;20411;-53
2022/05/18 00:41:24;;;;;;;4.23;1.20;;;;;;;12.38;100.00;100712.53;7400618;19;20397;-55
2022/05/18 00:43:54;;;;;;;3.53;1.73;;;;;;;12.34;100.00;100715.81;7384420;19;20423;-58
2022/05/18 00:46:24;;;;;;;2.63;1.17;;;;;;;12.30;100.00;100721.72;7398151;19;20764;-52
2022/05/18 00:48:55;;;;;;;3.23;1.40;;;;;;;12.24;100.00;100724.97;7394245;19;20460;-56
2022/05/18 00:51:28;;;;;;;2.00;1.00;;;;;;;12.20;100.00;100736.03;7400430;19;20388;-52
2022/05/18 00:54:03;;;;;;;4.40;1.27;;;;;;;12.18;100.00;100735.13;7393726;19;20505;-59
2022/05/18 00:56:38;;;;;;;7.57;1.33;;;;;;;12.13;100.00;100736.66;7400092;19;20449;-55
2022/05/18 00:59:11;;;;;;;3.53;1.20;;;;;;;12.11;100.00;100733.16;7392301;19;20417;-51
2022/05/18 01:01:41;;;;;;;6.00;1.30;;;;;;;12.06;100.00;100732.09;7399802;19;20384;-55
2022/05/18 01:04:11;;;;;;;5.07;1.10;;;;;;;12.06;100.00;100732.09;7393632;19;20840;-55
2022/05/18 01:06:44;;;;;;;4.93;1.30;;;;;;;12.01;100.00;100732.78;7396811;19;20418;-58
2022/05/18 01:09:18;;;;;;;7.00;1.17;;;;;;;11.97;100.00;100738.69;7393387;19;20506;-51
2022/05/18 01:11:50;;;;;;;2.67;1.30;;;;;;;11.94;100.00;100740.28;7399580;19;20399;-58
2022/05/18 01:14:23;;;;;;;11.80;1.20;;;;;;;11.92;100.00;100747.97;7392948;19;20419;-54
2022/05/18 01:16:53;;;;;;;5.60;1.57;;;;;;;11.87;100.00;100759.84;7396739;19;20451;-58
2022/05/18 01:19:33;;;;;;;3.03;1.13;;;;;;;11.84;100.00;100760.59;7391598;19;20440;-54
2022/05/18 01:22:07;;;;;;;3.67;1.20;;;;;;;11.85;100.00;100753.75;7399436;19;20395;-55
2022/05/18 01:24:43;;;;;;;3.43;1.20;;;;;;;11.83;100.00;100753.69;7392684;19;20415;-55
2022/05/18 01:27:15;;;;;;;4.43;0.97;;;;;;;11.80;100.00;100752.69;7399241;19;20728;-56
2022/05/18 01:29:44;;;;;;;3.30;1.20;;;;;;;11.79;100.00;100753.53;7385019;19;20428;-55
2022/05/18 01:32:20;;;;;;;16.03;1.20;;;;;;;11.73;100.00;100755.06;7399036;19;20727;-57
2022/05/18 01:34:50;;;;;;;15.83;1.57;;;;;;;11.70;100.00;100751.47;7388466;19;20452;-55
2022/05/18 01:37:19;;;;;;;6.23;2.20;;;;;;;11.69;100.00;100758.34;7397940;19;20401;-55
2022/05/18 01:39:56;;;;;;;2.50;1.30;;;;;;;11.67;100.00;100757.41;7360512;19;20419;-57
2022/05/18 01:42:32;;;;;;;7.30;1.40;;;;;;;11.68;100.00;100754.00;7398140;19;20386;-56
2022/05/18 01:45:02;;;;;;;3.20;1.60;;;;;;;11.70;100.00;100747.16;7366723;19;20530;-58
2022/05/18 01:47:35;;;;;;;10.03;1.30;;;;;;;11.69;100.00;100749.72;7398038;19;20391;-57
2022/05/18 01:50:05;;;;;;;6.10;2.40;;;;;;;11.62;100.00;100748.59;7365649;19;20434;-56
2022/05/18 01:52:35;;;;;;;3.97;1.50;;;;;;;11.61;100.00;100752.00;7398095;19;20389;-57
2022/05/18 01:55:07;;;;;;;6.10;1.60;;;;;;;11.54;100.00;100745.72;7363514;19;20437;-57
2022/05/18 01:57:39;;;;;;;5.17;1.23;;;;;;;11.51;100.00;100753.38;7397847;19;20381;-56
2022/05/18 02:00:11;;;;;;;3.30;1.77;;;;;;;11.51;100.00;100752.47;7370526;19;20828;-57
2022/05/18 02:02:41;;;;;;;5.00;1.90;;;;;;;11.51;100.00;100757.66;7396660;19;20919;-57
2022/05/18 02:05:11;;;;;;;3.70;1.27;;;;;;;11.48;100.00;100754.13;7387506;19;20971;-57
2022/05/18 02:07:41;;;;;;;4.10;1.23;;;;;;;11.45;100.00;100755.72;7397253;19;20382;-57
2022/05/18 02:10:12;;;;;;;2.33;1.17;;;;;;;11.44;100.00;100748.78;7378508;19;20430;-57
2022/05/18 02:12:44;;;;;;;6.13;1.67;;;;;;;11.42;100.00;100756.47;7397487;19;20735;-55
2022/05/18 02:15:13;;;;;;;6.60;1.30;;;;;;;11.37;100.00;100752.84;7361833;19;20422;-55
2022/05/18 02:17:43;;;;;;;4.10;1.00;;;;;;;11.33;100.00;100746.66;7397228;19;20405;-57
2022/05/18 02:20:14;;;;;;;8.73;1.10;;;;;;;11.26;100.00;100751.53;7358260;19;20748;-55
2022/05/18 02:22:43;;;;;;;6.80;1.30;;;;;;;11.25;100.00;100747.19;7396999;19;20386;-57
2022/05/18 02:25:13;;;;;;;5.23;1.53;;;;;;;11.26;100.00;100746.38;7360992;19;20449;-56
2022/05/18 02:27:45;;;;;;;3.77;1.03;;;;;;;11.21;100.00;100739.34;7396919;19;20387;-53
2022/05/18 02:30:16;;;;;;;4.50;1.53;;;;;;;11.20;100.00;100742.75;7371702;19;20441;-56
2022/05/18 02:32:45;;;;;;;5.40;1.20;;;;;;;11.19;100.00;100737.53;7396837;19;20397;-55
2022/05/18 02:35:15;;;;;;;4.00;1.10;;;;;;;11.17;100.00;100739.13;7367743;19;20451;-55
2022/05/18 02:37:44;;;;;;;2.73;1.20;;;;;;;11.12;100.00;100741.56;7396575;19;20446;-52
2022/05/18 02:40:14;;;;;;;4.33;1.27;;;;;;;11.10;100.00;100742.31;7389690;19;20439;-56
2022/05/18 02:42:46;;;;;;;7.87;1.60;;;;;;;11.05;100.00;100748.19;7396962;19;20384;-55
2022/05/18 02:45:16;;;;;;;2.90;1.30;;;;;;;11.02;100.00;100742.88;7365228;19;20432;-55
2022/05/18 02:47:46;;;;;;;6.73;1.60;;;;;;;11.03;100.00;100749.81;7394631;19;20908;-56
2022/05/18 02:50:16;;;;;;;4.50;1.30;;;;;;;11.07;100.00;100738.78;7372033;19;20413;-56
2022/05/18 02:52:45;;;;;;;13.43;1.50;;;;;;;11.07;100.00;100748.22;7396636;19;20390;-54
2022/05/18 02:57:59;;;;;;;3.07;1.40;;;;;;;11.08;100.00;100758.63;7395976;19;20393;-56
2022/05/18 03:00:29;;;;;;;6.03;2.50;;;;;;;11.08;100.00;100761.22;7387991;19;20436;-54
2022/05/18 03:02:58;;;;;;;4.03;1.43;;;;;;;11.12;100.00;100758.75;7395998;19;20389;-58
2022/05/18 03:05:28;;;;;;;9.63;1.60;;;;;;;11.13;100.00;100753.63;7388536;19;20428;-56
2022/05/18 03:07:58;;;;;;;7.33;1.40;;;;;;;11.13;100.00;100756.22;7395865;19;20478;-59
2022/05/18 03:10:28;;;;;;;6.80;1.43;;;;;;;11.11;100.00;100755.28;7389963;19;20751;-56
2022/05/18 03:13:00;;;;;;;3.73;1.40;;;;;;;11.09;100.00;100754.34;7395954;19;20401;-55
2022/05/18 03:15:29;;;;;;;5.90;2.20;;;;;;;11.09;100.00;100756.94;7387291;19;20437;-58
2022/05/18 03:17:59;;;;;;;3.87;1.47;;;;;;;11.10;100.00;100763.84;7395296;19;20390;-55
2022/05/18 03:25:52;;;;;;;6.43;1.90;;;;;;;11.06;100.00;100772.28;7392854;19;20414;-55
2022/05/18 03:28:24;;;;;;;8.13;1.53;;;;;;;11.07;100.00;100774.03;7387407;19;20390;-54
2022/05/18 03:30:55;;;;;;;7.23;2.20;;;;;;;11.08;100.00;100773.25;7394612;19;20394;-57
2022/05/18 03:33:25;;;;;;;6.03;1.70;;;;;;;11.08;100.00;100770.66;7379997;19;20393;-57
2022/05/18 03:35:55;;;;;;;6.63;2.50;;;;;;;11.07;100.00;100774.03;7392878;19;20426;-53
2022/05/18 03:38:25;;;;;;;5.87;1.90;;;;;;;11.06;100.00;100772.28;7388686;19;20454;-54
2022/05/18 03:40:54;;;;;;;6.50;2.50;;;;;;;11.06;100.00;100770.59;7393429;19;20739;-55
2022/05/18 03:43:27;;;;;;;4.83;2.47;;;;;;;11.08;100.00;100776.69;7386973;19;20743;-55
2022/05/18 03:45:58;;;;;;;6.57;1.63;;;;;;;11.07;100.00;100774.94;7392910;19;20413;-55
2022/05/18 03:48:29;;;;;;;3.30;1.43;;;;;;;11.08;100.00;100779.28;7388631;19;20393;-57
2022/05/18 03:51:00;;;;;;;3.30;1.20;;;;;;;11.09;100.00;100777.59;7394090;19;20388;-57
2022/05/18 03:53:30;;;;;;;3.50;1.20;;;;;;;11.10;100.00;100779.34;7388448;19;20393;-56
2022/05/18 03:56:01;;;;;;;4.47;2.03;;;;;;;11.12;100.00;100782.88;7394594;19;20430;-58
2022/05/18 03:58:34;;;;;;;7.63;2.20;;;;;;;11.11;100.00;100781.09;7387343;19;20397;-58
2022/05/18 04:01:08;;;;;;;5.40;1.80;;;;;;;11.07;100.00;100774.03;7392971;19;20394;-57
2022/05/18 04:03:39;;;;;;;4.23;1.90;;;;;;;11.07;100.00;100771.47;7389903;19;21397;-55
2022/05/18 04:06:09;;;;;;;4.67;1.90;;;;;;;11.06;100.00;100774.88;7392805;19;20423;-58
2022/05/18 04:08:39;;;;;;;4.00;1.77;;;;;;;11.10;100.00;100774.19;7387013;19;20447;-56
2022/05/18 04:11:10;;;;;;;4.77;1.73;;;;;;;11.09;100.00;100775.00;7393958;19;20401;-55
2022/05/18 04:13:42;;;;;;;3.93;1.80;;;;;;;11.11;100.00;100786.28;7385734;19;20412;-53
2022/05/18 04:16:11;;;;;;;7.00;1.83;;;;;;;11.12;100.00;100779.41;7392504;19;20433;-56
2022/05/18 04:18:41;;;;;;;3.10;1.60;;;;;;;11.13;100.00;100778.59;7386285;19;20420;-55
2022/05/18 04:21:10;;;;;;;2.67;1.40;;;;;;;11.15;100.00;100782.09;7392763;19;20952;-56
2022/05/18 04:23:41;;;;;;;6.10;1.73;;;;;;;11.15;100.00;100783.00;7358331;19;20388;-57
2022/05/18 04:26:11;;;;;;;5.07;1.80;;;;;;;11.18;100.00;100783.09;7391058;19;20982;-55
2022/05/18 04:28:43;;;;;;;4.53;1.80;;;;;;;11.25;100.00;100781.66;7385253;19;20410;-56
2022/05/18 04:31:13;;;;;;;7.93;1.77;;;;;;;11.28;100.00;100776.59;7393392;19;20385;-55
2022/05/18 04:33:42;;;;;;;5.97;1.90;;;;;;;11.31;100.00;100788.75;7387731;19;20411;-56
2022/05/18 04:36:12;;;;;;;8.03;1.97;;;;;;;11.32;100.00;100785.34;7391975;19;20431;-57
2022/05/18 04:38:42;;;;;;;7.00;2.00;;;;;;;11.35;100.00;100778.59;7386453;19;20417;-58
2022/05/18 04:41:11;;;;;;;4.30;1.90;;;;;;;11.42;100.00;100782.31;7391727;19;20395;-56
2022/05/18 04:43:43;;;;;;;8.83;2.00;;;;;;;11.48;100.00;100777.38;7386097;19;20415;-58
2022/05/18 04:46:13;;;;;;;4.43;1.73;;;;;;;11.55;100.00;100780.19;7391641;19;20418;-58
2022/05/18 04:48:42;;;;;;;9.67;1.73;;;;;;;11.65;100.00;100774.56;7372632;19;20460;-53
2022/05/18 04:51:12;;;;;;;4.30;1.53;;;;;;;11.70;100.00;100780.78;7397533;19;20394;-56
2022/05/18 04:53:41;;;;;;;3.70;1.43;;;;;;;11.78;100.00;100777.63;7385174;19;20433;-56
2022/05/18 04:56:11;;;;;;;6.40;1.90;;;;;;;11.82;100.00;100780.38;7391503;19;20824;-55
2022/05/18 04:58:40;;;;;;;4.80;1.87;;;;;;;11.81;100.00;100790.63;7384981;19;20421;-53
2022/05/18 05:01:13;;;;;;;8.47;2.07;;;;;;;11.81;100.00;100785.47;7391801;19;20926;-57
2022/05/18 05:03:42;;;;;;;7.10;2.00;;;;;;;11.92;100.00;100784.16;7384885;19;20967;-57
2022/05/18 05:06:12;;;;;;;4.67;2.03;;;;;;;11.95;100.00;100786.84;7390907;19;20479;-56
2022/05/18 05:08:42;;;;;;;4.60;1.70;;;;;;;12.12;100.00;100779.75;7385085;19;20419;-58
2022/05/18 05:11:12;;;;;;;4.60;1.80;;;;;;;12.21;100.00;100773.13;7395300;19;20398;-59
2022/05/18 05:13:41;;;;;;;3.77;1.83;;;;;;;12.28;100.00;100773.41;7391915;19;20415;-58
2022/05/18 05:16:14;;;;;;;4.33;1.73;;;;;;;12.41;100.00;100776.44;7397881;19;20419;-58
2022/05/18 05:18:49;;;;;;;7.30;2.10;;;;;;;12.36;100.00;100772.81;7391884;19;20651;-59
2022/05/18 05:21:18;;;;;;;7.30;2.17;;;;;;;12.42;100.00;100776.47;7398536;19;20384;-55
2022/05/18 05:23:48;;;;;;;7.50;2.30;;;;;;;12.45;100.00;100786.03;7390963;19;20418;-57
2022/05/18 05:26:17;;;;;;;7.30;2.93;;;;;;;12.59;100.00;100777.88;7400945;19;20424;-57
2022/05/18 05:28:47;;;;;;;4.17;2.30;;;;;;;12.61;100.00;100784.84;7393646;19;20412;-57
2022/05/18 05:31:19;;;;;;;7.30;2.27;;;;;;;12.82;100.00;100784.69;7402329;19;20389;-53
2022/05/18 05:33:49;;;;;;;7.27;2.20;;;;;;;12.80;100.00;100773.41;7394194;19;20420;-59
2022/05/18 05:36:19;;;;;;;7.70;2.10;;;;;;;12.80;100.00;100768.25;7400172;19;20427;-55
2022/05/18 05:38:49;;;;;;;6.87;2.10;;;;;;;12.89;100.00;100756.41;7394729;19;20411;-56
2022/05/18 05:41:19;;;;;;;5.93;2.00;;;;;;;12.95;100.00;100749.75;7401595;19;20393;-56
2022/05/18 05:43:50;;;;;;;4.70;2.10;;;;;;;12.98;100.00;100743.78;7367876;19;20404;-57
2022/05/18 05:46:22;;;;;;;6.70;2.20;;;;;;;13.12;100.00;100738.16;7395309;19;20427;-58
2022/05/18 05:48:51;;;;;;;6.23;2.63;;;;;;;13.16;100.00;100745.16;7391591;19;20448;-57
2022/05/18 05:51:23;;;;;;;4.47;2.43;;;;;;;13.18;100.00;100744.38;7398979;19;20935;-54
2022/05/18 05:53:54;;;;;;;5.30;2.40;;;;;;;13.29;100.00;100747.31;7381069;19;20426;-55
2022/05/18 05:56:24;;;;;;;5.43;2.30;;;;;;;13.45;100.00;100737.41;7399429;19;20432;-57
2022/05/18 05:58:53;;;;;;;5.10;2.30;;;;;;;13.52;100.00;100729.00;7389715;19;20488;-57
2022/05/18 06:01:25;;;;;;;15.30;7.77;;;;;;;13.71;100.00;100734.72;7397458;19;21097;-53
2022/05/18 06:03:55;;;;;;;9.40;4.10;;;;;;;13.83;100.00;100729.88;7392229;19;20431;-54
2022/05/18 06:06:24;;;;;;;8.30;3.50;;;;;;;13.86;100.00;100724.78;7395507;19;20437;-53
2022/05/18 06:08:54;;;;;;;14.20;5.73;;;;;;;13.78;100.00;100731.47;7381856;19;20418;-57
2022/05/18 06:11:25;;;;;;;8.17;4.40;;;;;;;13.84;100.00;100725.59;7397282;19;20380;-56
2022/05/18 06:13:55;;;;;;;12.47;2.50;;;;;;;14.01;100.00;100715.66;7389270;19;20769;-57
2022/05/18 06:16:27;;;;;;;9.37;3.20;;;;;;;13.85;100.00;100722.16;7395491;19;20418;-55
2022/05/18 06:18:59;;;;;;;9.00;3.93;;;;;;;13.91;100.00;100725.78;7390349;19;20506;-57
2022/05/18 06:21:29;;;;;;;11.97;3.50;;;;;;;13.97;100.00;100732.88;7400327;19;20399;-56
2022/05/18 06:23:59;;;;;;;8.07;3.43;;;;;;;14.03;100.00;100724.34;7387708;19;20485;-56
2022/05/18 06:26:29;;;;;;;7.10;3.50;;;;;;;14.06;100.00;100729.66;7395217;19;21017;-58
2022/05/18 06:28:58;;;;;;;4.77;2.80;;;;;;;14.14;100.00;100724.63;7396934;19;20388;-55
2022/05/18 06:31:30;;;;;;;8.70;4.87;;;;;;;14.14;100.00;100730.72;7396703;19;20742;-52
2022/05/18 06:34:07;;;;;;;9.73;3.37;;;;;;;14.26;100.00;100719.78;7389059;19;20436;-54
2022/05/18 06:36:37;;;;;;;7.40;2.73;;;;;;;14.23;100.00;100724.00;7393987;19;20408;-55
2022/05/18 06:39:07;;;;;;;7.47;3.20;;;;;;;14.48;100.00;100720.34;7390390;19;20419;-55
2022/05/18 06:41:37;;;;;;;7.63;3.37;;;;;;;14.55;100.00;100719.66;7398057;19;20912;-58
2022/05/18 06:44:08;;;;;;;9.40;4.30;;;;;;;14.63;100.00;100717.25;7382127;19;20490;-54
2022/05/18 06:46:40;;;;;;;7.97;3.00;;;;;;;14.65;100.00;100715.56;7394194;19;20412;-57
2022/05/18 06:49:13;;;;;;;15.77;6.60;;;;;;;14.80;100.00;100709.00;7391859;19;20933;-56
2022/05/18 06:51:44;;;;;;;9.30;3.60;;;;;;;14.87;100.00;100712.63;7396070;19;20399;-57
2022/05/18 06:54:14;;;;;;;6.50;3.57;;;;;;;14.95;100.00;100711.06;7390027;19;20447;-58
2022/05/18 06:57:04;;;;;;;8.50;3.10;;;;;;;15.10;100.00;100700.16;7398148;19;20438;-55
2022/05/18 06:59:33;;;;;;;5.20;3.13;;;;;;;15.15;100.00;100695.94;7388849;19;20462;-57
2022/05/18 07:02:06;;;;;;;5.13;3.50;;;;;;;15.19;100.00;100695.19;7397620;19;20407;-56
2022/05/18 07:04:36;;;;;;;8.83;4.43;;;;;;;15.13;100.00;100689.84;7383577;19;20410;-58
2022/05/18 07:07:06;;;;;;;8.40;4.33;;;;;;;15.17;100.00;100693.38;7393745;19;20429;-57
2022/05/18 07:09:36;;;;;;;8.67;3.60;;;;;;;15.07;100.00;100697.50;7388845;19;20754;-55
2022/05/18 07:12:06;;;;;;;9.70;3.77;;;;;;;15.11;100.00;100695.00;7395103;19;20393;-57
2022/05/18 07:14:36;;;;;;;6.90;3.37;;;;;;;15.05;100.00;100701.78;7385167;19;20433;-56
2022/05/18 07:17:08;;;;;;;9.60;3.53;;;;;;;15.03;100.00;100704.31;7393676;19;20433;-56
2022/05/18 07:19:38;;;;;;;6.77;4.27;;;;;;;15.01;100.00;100705.16;7388698;19;20526;-56
2022/05/18 07:22:08;;;;;;;8.80;4.27;;;;;;;15.03;100.00;100706.94;7398215;19;20522;-52
2022/05/18 07:24:37;;;;;;;6.40;4.03;;;;;;;15.06;100.00;100704.41;7388685;19;20429;-56
2022/05/18 07:27:07;;;;;;;8.00;4.00;;;;;;;15.11;100.00;100709.69;7392980;19;20424;-57
2022/05/18 07:29:37;;;;;;;9.57;4.40;;;;;;;15.07;100.00;100713.09;7384473;19;20413;-55
2022/05/18 07:32:15;;;;;;;6.63;4.00;;;;;;;15.14;100.00;100706.31;7396758;19;20418;-55
2022/05/18 07:34:47;;;;;;;9.47;4.53;;;;;;;15.15;100.00;100702.84;7389372;19;20418;-53
2022/05/18 07:37:19;;;;;;;10.93;4.77;;;;;;;15.13;100.00;100710.63;7394574;19;20397;-55
2022/05/18 07:39:48;;;;;;;12.90;5.60;;;;;;;15.11;100.00;100708.00;7385900;19;20434;-58
2022/05/18 07:42:18;;;;;;;11.00;5.33;;;;;;;15.20;100.00;100701.25;7393882;19;20385;-57
2022/05/18 07:44:48;;;;;;;15.70;5.17;;;;;;;15.18;100.00;100703.78;7386613;19;20414;-56
2022/05/18 07:47:20;;;;;;;10.20;4.50;;;;;;;15.21;100.00;100708.19;7394660;19;20390;-58
2022/05/18 07:49:49;;;;;;;9.13;4.43;;;;;;;15.31;100.00;100698.88;7386272;19;20421;-57
2022/05/18 07:52:19;;;;;;;12.17;3.50;;;;;;;15.35;100.00;100695.50;7393510;19;20414;-56
2022/05/18 07:54:48;;;;;;;8.40;4.37;;;;;;;15.34;100.00;100693.75;7382730;19;20452;-53
2022/05/18 07:57:18;;;;;;;10.47;4.63;;;;;;;15.41;100.00;100686.94;7398524;19;20409;-57
2022/05/18 07:59:48;;;;;;;8.87;5.87;;;;;;;15.50;100.00;100685.41;7387957;19;20445;-51
2022/05/18 08:02:20;;;;;;;8.83;5.40;;;;;;;15.59;100.00;100684.72;7393385;19;20393;-58
2022/05/18 08:04:49;;;;;;;8.43;5.23;;;;;;;15.66;100.00;100685.72;7386569;19;20419;-55
2022/05/18 08:07:19;;;;;;;8.20;5.80;;;;;;;15.82;100.00;100676.50;7393818;19;20385;-56
2022/05/18 08:15:13;;;;;;;8.20;5.10;;;;;;;16.42;100.00;100658.47;7393622;19;20453;-55
2022/05/18 08:17:47;;;;;;;12.20;4.67;;;;;;;16.71;100.00;100668.47;7381526;19;20399;-53
2022/05/18 08:20:19;;;;;;;10.33;5.37;;;;;;;16.84;100.00;100666.03;7392763;19;20457;-55
2022/05/18 08:22:49;;;;;;;7.37;4.27;;;;;;;16.96;100.00;100660.13;7385382;19;20407;-56
2022/05/18 08:25:19;;;;;;;8.43;5.03;;;;;;;17.00;100.00;100654.09;7392097;19;20423;-59
2022/05/18 08:27:52;;;;;;;8.43;5.57;;;;;;;16.76;100.00;100659.84;7372621;19;20393;-54
2022/05/18 08:30:23;;;;;;;7.47;6.23;;;;;;;16.87;100.00;100661.75;7393035;19;20458;-57
2022/05/18 08:32:57;;;;;;;10.97;5.90;;;;;;;16.98;100.00;100653.22;7385517;19;20416;-56
2022/05/18 08:35:27;;;;;;;6.40;5.00;;;;;;;17.12;100.00;100643.88;7391868;19;20449;-54
2022/05/18 08:37:57;;;;;;;7.53;4.57;;;;;;;17.22;100.00;100633.56;7385815;19;20428;-55
2022/05/18 08:40:40;;;;;;;8.97;5.40;;;;;;;17.31;100.00;100641.50;7395583;19;20467;-54
2022/05/18 08:43:11;;;;;;;8.90;5.30;;;;;;;17.47;100.00;100642.53;7385908;19;20424;-56
2022/05/18 08:45:48;;;;;;;9.83;5.10;;;;;;;17.66;100.00;100629.72;7392041;19;20412;-58
2022/05/18 08:48:44;;;;;;;8.60;5.30;;;;;;;17.79;100.00;100630.72;7393877;19;20491;-55
2022/05/18 08:51:25;;;;;;;9.03;5.30;;;;;;;17.87;100.00;100628.16;7398881;19;20418;-57
2022/05/18 08:54:19;;;;;;;13.33;6.30;;;;;;;17.86;100.00;100627.31;7396341;19;20445;-58
2022/05/18 08:56:49;;;;;;;8.43;5.20;;;;;;;17.92;100.00;100629.97;7400001;19;20473;-55
2022/05/18 08:59:21;;;;;;;12.00;6.00;;;;;;;18.19;100.00;100623.28;7363194;19;20422;-57
2022/05/18 09:01:57;;;;;;;11.37;5.20;;;;;;;18.30;100.00;100622.50;7399326;19;20390;-57
2022/05/18 09:04:46;;;;;;;10.43;6.27;;;;;;;18.22;100.00;100620.66;7361507;19;21044;-57
2022/05/18 09:07:46;;;;;;;9.93;6.37;;;;;;;18.34;100.00;100611.19;7375851;19;20405;-58
2022/05/18 09:10:25;;;;;;;10.63;6.70;;;;;;;18.31;100.00;100621.63;7398283;19;20747;-58
2022/05/18 09:12:55;;;;;;;11.00;6.90;;;;;;;18.44;100.00;100618.25;7391257;19;20950;-57
2022/05/18 09:15:34;;;;;;;15.43;5.37;;;;;;;18.69;100.00;100607.94;7397745;19;20502;-55
2022/05/18 09:18:12;;;;;;;8.30;5.87;;;;;;;18.84;100.00;100601.94;7391775;19;20527;-55
2022/05/18 09:20:49;;;;;;;11.90;5.83;;;;;;;19.06;100.00;100596.81;7398306;19;20939;-55
2022/05/18 09:23:33;;;;;;;14.93;6.60;;;;;;;19.16;100.00;100595.13;7391537;19;20435;-57
2022/05/18 09:26:14;;;;;;;13.20;6.40;;;;;;;19.36;100.00;100578.59;7397540;19;20412;-57
2022/05/18 09:28:53;;;;;;;9.27;6.00;;;;;;;19.24;100.00;100600.38;7388416;19;20425;-55
2022/05/18 09:31:35;;;;;;;10.53;6.30;;;;;;;19.41;100.00;100603.03;7398564;19;20383;-54
2022/05/18 09:34:16;;;;;;;10.23;5.73;;;;;;;19.65;100.00;100601.34;7390770;19;20441;-55
2022/05/18 09:36:59;;;;;;;10.97;5.90;;;;;;;19.86;100.00;100608.34;7395927;19;20415;-55
2022/05/18 09:39:30;;;;;;;10.23;5.53;;;;;;;19.92;100.00;100625.81;7391913;19;20418;-54
2022/05/18 09:42:02;;;;;;;9.73;5.90;;;;;;;20.03;100.00;100645.06;7398349;19;20735;-56
2022/05/18 09:44:37;;;;;;;12.70;5.93;;;;;;;20.21;100.00;100622.38;7390330;19;20518;-57
2022/05/18 09:47:07;;;;;;;10.80;5.60;;;;;;;20.34;100.00;100629.34;7395663;19;20423;-59
2022/05/18 09:49:42;;;;;;;11.03;5.73;;;;;;;20.52;100.00;100630.19;7391727;19;20419;-57
2022/05/18 09:52:15;;;;;;;8.20;5.67;;;;;;;20.57;100.00;100633.69;7397720;19;20390;-56
2022/05/18 09:54:46;;;;;;;14.60;5.80;;;;;;;20.78;100.00;100627.50;7391761;19;20442;-59
2022/05/18 09:57:20;;;;;;;10.50;6.20;;;;;;;20.84;100.00;100644.09;7399853;19;20742;-55
2022/05/18 09:59:58;;;;;;;15.40;8.77;;;;;;;20.78;100.00;100650.25;7393116;19;20432;-57
2022/05/18 10:07:59;;;;;;;8.97;6.73;;;;;;;21.07;100.00;100657.16;7391728;19;20395;-56
2022/05/18 10:10:31;;;;;;;12.47;7.47;;;;;;;21.21;100.00;100648.41;7401119;19;20424;-56
2022/05/18 10:13:05;;;;;;;8.93;6.40;;;;;;;21.48;100.00;100657.00;7361509;19;20498;-56
2022/05/18 10:16:03;;;;;;;12.27;6.37;;;;;;;21.61;100.00;100666.56;7394078;19;20518;-53
2022/05/18 10:18:41;;;;;;;9.80;6.30;;;;;;;21.58;100.00;100705.94;7367238;19;20393;-58
2022/05/18 10:21:24;;;;;;;9.43;6.80;;;;;;;21.51;100.00;100725.22;7395892;19;20393;-58
2022/05/18 10:24:05;;;;;;;10.70;6.60;;;;;;;21.75;100.00;100749.63;7358802;19;20407;-56
2022/05/18 10:26:42;;;;;;;11.90;6.87;;;;;;;21.94;100.00;100777.53;7394648;19;20429;-56
2022/05/18 10:29:24;;;;;;;9.87;6.43;;;;;;;22.20;100.00;100768.63;7388749;19;20411;-52
2022/05/18 10:32:05;;;;;;;8.73;6.40;;;;;;;22.35;100.00;100769.44;7396653;19;20451;-58
2022/05/18 10:34:35;;;;;;;9.83;7.00;;;;;;;22.41;100.00;100794.78;7387669;19;20431;-59
2022/05/18 10:37:05;;;;;;;9.73;7.07;;;;;;;22.26;100.00;100797.50;7394721;19;20415;-59
2022/05/18 10:39:44;;;;;;;14.07;6.23;;;;;;;22.43;100.00;100780.75;7390208;19;20417;-55
2022/05/18 10:42:19;;;;;;;7.63;6.83;;;;;;;22.28;100.00;100822.88;7396724;19;20408;-54
2022/05/18 10:44:48;;;;;;;9.20;7.30;;;;;;;22.47;100.00;100821.03;7386415;19;20439;-57
2022/05/18 10:47:27;;;;;;;9.20;6.77;;;;;;;22.60;100.00;100820.09;7395588;19;20387;-59
2022/05/18 10:50:14;;;;;;;10.20;7.00;;;;;;;22.29;100.00;100840.44;7389464;19;20442;-58
2022/05/18 10:52:43;;;;;;;13.43;7.30;;;;;;;22.12;100.00;100823.88;7389663;19;20388;-54
2022/05/18 10:55:17;;;;;;;11.63;8.90;;;;;;;22.45;100.00;100805.25;7394008;19;20391;-58
2022/05/18 10:57:56;;;;;;;7.83;6.60;;;;;;;22.72;100.00;100795.44;7363800;19;20909;-57
2022/05/18 11:00:30;;;;;;;10.50;8.17;;;;;;;22.16;100.00;100810.72;7394138;19;20383;-52
2022/05/18 11:03:05;;;;;;;11.00;7.23;;;;;;;22.70;100.00;100773.56;7381302;19;21434;-56
2022/05/18 11:05:41;;;;;;;10.57;7.10;;;;;;;22.76;100.00;100794.53;7392255;19;20449;-55
2022/05/18 11:08:14;;;;;;;17.67;8.40;;;;;;;22.81;100.00;100791.88;7386031;19;20419;-58
2022/05/18 11:10:51;;;;;;;14.20;8.50;;;;;;;22.97;100.00;100803.13;7394465;19;20387;-55
2022/05/18 11:13:26;;;;;;;9.40;7.03;;;;;;;23.14;100.00;100784.56;7388243;19;20422;-58
2022/05/18 11:16:03;;;;;;;9.23;7.03;;;;;;;23.29;100.00;100788.78;7392915;19;20417;-55
2022/05/18 11:18:38;;;;;;;9.43;7.03;;;;;;;23.44;100.00;100805.34;7388337;19;20411;-57
2022/05/18 11:21:16;;;;;;;10.27;8.10;;;;;;;23.32;100.00;100812.47;7394273;19;20383;-57
2022/05/18 11:23:52;;;;;;;13.93;7.47;;;;;;;23.45;100.00;100830.78;7388250;19;20425;-53
2022/05/18 11:26:35;;;;;;;11.40;7.97;;;;;;;22.99;100.00;100874.13;7393114;19;20851;-58
2022/05/18 11:29:17;;;;;;;12.20;8.10;;;;;;;22.72;100.00;100844.56;7385374;19;20430;-55
2022/05/18 11:31:55;;;;;;;12.80;7.33;;;;;;;23.30;100.00;100805.44;7394687;19;20386;-59
2022/05/18 11:34:32;;;;;;;10.97;7.70;;;;;;;23.38;100.00;100835.22;7388117;19;20418;-55
2022/05/18 11:37:12;;;;;;;10.70;9.07;;;;;;;23.09;100.00;100853.88;7392557;19;20429;-56
2022/05/18 11:39:45;;;;;;;13.03;8.30;;;;;;;23.14;100.00;100837.19;7385514;19;20870;-56
2022/05/18 11:42:26;;;;;;;10.50;8.67;;;;;;;23.40;100.00;100845.72;7394703;19;20463;-54
2022/05/18 11:45:07;;;;;;;11.50;7.63;;;;;;;23.87;100.00;100823.25;7355235;19;20961;-58
2022/05/18 11:47:51;;;;;;;13.30;10.07;;;;;;;23.86;100.00;100863.66;7366686;19;21051;-54
2022/05/18 11:50:30;;;;;;;10.03;8.10;;;;;;;24.00;100.00;100896.88;7394915;19;20398;-56
2022/05/18 11:53:12;;;;;;;11.77;7.70;;;;;;;24.10;100.00;100887.97;7360500;19;20393;-54
2022/05/18 11:55:48;;;;;;;11.67;8.80;;;;;;;24.00;100.00;100913.53;7393624;19;20442;-55
2022/05/18 11:58:42;;;;;;;13.40;8.03;;;;;;;24.17;100.00;100920.41;7387072;19;20932;-59